Philadelphia, Pennsylvania
Traffic Map
Current Weather Conditions
Philadelphia, Pennsylvania
Broken Clouds
Broken Clouds
22°
Feels Like: 22°
Wind Chill: 22° Ceiling: 3000
Heat Index: 22° Visibility: 10mi
Dew Point: 14° Wind: 23mph
Humidity: 59% Direction: 220° (SW)
Pressure: 29.63in Gusts: 29mph
Raw Report DataKPHL 241735Z 22020G25KT 10SM BKN030 22/14 A2963 RMK AO2 PK WND 21032/1720 T02220139
Traffic Incident Summary
Active as of:
Severity:
Category:
InformationThere was an issue retrieving the traffic information for this location. Please try a different location or try again shortly.
Advertisements
Track Severe Weather on mobile